Pagrindinis puslapis
METAR-TAF:

METAR-TAF

Oro uostai :

Erbilis, Irakas

platuma: 36-14-15N, ilguma: 43-57-47E, Aukštis: 415 m

Dabartinis oras

Ataskaita buvo paskelbta 1 valandą ir 7 minutes, ne 02:00 UTC
Vėjas 15 kt iš Pietryčių
Temperatūra 18°C
Drėgmė 37%
Slėgis 1012 hPa
Matomumas: 7000 m

METAR: ORER 010200Z 14015KT 7000 NSC 18/03 Q1012

Laikas: 06:07 (03:07 UTC)

Prognozė

Ataskaita buvo paskelbta 10 valandos ir 7 minutes, ne 17:00 UTC
Prognozė galioja nuo 30 metu 18 UTC su 01 metu 18 UTC
Vėjas 4 kt iš Pietų/Pietryčių
Matomumas: 7000 m
Tapsmas
nuo 01 metu 06 UTC su 01 metu 09 UTC
Vėjas 10 kt iš Pietų/Pietvakarių
Mažai debesys ne aukštis 4000 ft
Su prošvaistėmis ne aukštis 10000 ft
Laikinai
nuo 01 metu 10 UTC su 01 metu 18 UTC
Matomumas: 4000 m

TAF: ORER 301700Z 3018/0118 15004KT 7000 NSC BECMG 0106/0109 21010KT FEW040 BKN100 TEMPO 0110/0118 G20KT 4000 BLUD

Orai ataskaitas ir orų prognozės (METAR, TAF).

turimą stotys yra geltonos ir raudonos taškus žemėlapyje.

Perkelti pele per norėdami pamatyti stoties vardą.

Tada spustelėkite, norėdami matyti oro stebėjimo ir prognozės.

Norėdami pakeisti žemėlapį: spustelėkite ant žalios mygtukų su juodo kryžiaus žemyn,; žalią mygtuką su brūkšneliu, jei norite nutolinti; arba žalių rodyklių gretimoms žemėlapius.


METAR-TAF: